Gibsland, Louisiana
Current Conditions -  °F | °C
As of 3:36 PM on Thursday 18 Dec 2014 (Local Time) from KMNE Reporting Station
Overcast Overcast  
Wind Chill: 52°   Ceiling: 1000
Heat Index: 52°   Visibility: 10mi
Dew Point: 46°   Wind: 0mph
Humidity: 82%   Direction: NA
Pressure: 30.13"   Gusts: NA
Location:  32.54°N, 93.05°W
Report Text: KMNE 182136Z AUTO 00000KT 10SM OVC010 11/08 A3013 RMK AO2
Loading
Personal Weather Stations






























Interactive Weather Map New forecast layout! Learn more

10-Day Weather Forecast

Advertisements
Track Severe Weather on mobile